Terminal Aerodrome Forecast
Issued by NWS

Home | Current Version | Previous Version | Text Only | Print | Product List | Glossary Off
Versions: 1 2 3 4 5 6 7 8 9 10 11 12 13 14 15 16 17 18 19 20 21 22 23 24 25 26 27 28 29

894
FTUS43 KLOT 231724
TAFMDW
TAF
KMDW 231724Z 2318/2418 20012G18KT P6SM FEW040 SCT250
     FM240000 17008KT P6SM BKN250
     FM240800 18009KT P6SM VCSH BKN050
      TEMPO 2411/2415 3SM TSRA SCT010 OVC018CB
     FM241500 20012G20KT P6SM VCTS BKN025CB OVC050=

USA.gov is the U.S. government's official web portal to all federal, state and local government web resources and services.